Time;durP1;ratioP1;P1;durP2;ratioP2;P2;SDS_P1;SDS_P2;PMS_P1;PMS_P2;Temp;Humidity;BMP_temperature;BMP_pressure;BME280_temperature;BME280_humidity;BME280_pressure;Samples;Min_cycle;Max_cycle;Signal;HPM_P1;HPM_P2
2021/01/26 00:00:18;;;;;;;;;;;-1.10;99.90;;;;;;5073763;28;20003;-76
2021/01/26 00:02:44;;;;;;;;;;;-1.10;99.90;;;;;;5072943;28;19970;-76
2021/01/26 00:05:10;;;;;;;;;;;-1.10;99.90;;;;;;5074469;28;19943;-76
2021/01/26 00:07:36;;;;;;;;;;;-1.10;99.90;;;;;;5088524;28;20006;-76
2021/01/26 00:10:02;;;;;;;;;;;-1.10;99.90;;;;;;5085724;28;20003;-76
2021/01/26 00:12:28;;;;;;;;;;;-1.10;99.90;;;;;;5080552;28;19908;-76
2021/01/26 00:14:53;;;;;;;;;;;-1.20;99.90;;;;;;5084252;28;19961;-76
2021/01/26 00:17:19;;;;;;;;;;;-1.30;99.90;;;;;;5074598;28;19909;-76
2021/01/26 00:19:44;;;;;;;;;;;-1.40;99.90;;;;;;5093312;28;20041;-76
2021/01/26 00:22:10;;;;;;;;;;;-1.50;99.90;;;;;;5087115;28;19908;-76
2021/01/26 00:24:35;;;;;;;;;;;-1.50;99.90;;;;;;5093295;28;20443;-76
2021/01/26 00:27:01;;;;;;;;;;;-1.60;99.90;;;;;;5091918;28;19908;-76
2021/01/26 00:29:27;;;;;;;;;;;-1.70;99.90;;;;;;5072344;28;19915;-76
2021/01/26 00:31:52;;;;;;;;;;;-1.70;99.90;;;;;;5073975;28;19916;-76
2021/01/26 00:34:18;;;;;;;;;;;-1.80;99.90;;;;;;5074158;28;19908;-76
2021/01/26 00:36:43;;;;;;;;;;;-1.90;99.90;;;;;;5085682;28;19912;-76
2021/01/26 00:39:09;;;;;;;;;;;-2.00;99.90;;;;;;5091794;28;19934;-76
2021/01/26 00:41:34;;;;;;;;;;;-2.00;99.90;;;;;;5085854;28;20425;-76
2021/01/26 00:44:00;;;;;;;;;;;-2.00;99.90;;;;;;5077640;28;19912;-76
2021/01/26 00:46:25;;;;;;;;;;;-2.00;99.90;;;;;;5090961;28;19909;-76
2021/01/26 00:48:51;;;;;;;;;;;-1.90;99.90;;;;;;5088428;28;19916;-76
2021/01/26 00:51:16;;;;;;;;;;;-1.90;99.90;;;;;;5073542;28;19909;-76
2021/01/26 00:53:42;;;;;;;;;;;-2.00;99.90;;;;;;5073283;28;19908;-76
2021/01/26 00:56:07;;;;;;;;;;;-2.10;99.90;;;;;;5072631;28;19909;-76
2021/01/26 00:58:32;;;;;;;;;;;-2.10;99.90;;;;;;5072936;28;19909;-76
2021/01/26 01:00:58;;;;;;;;;;;-2.20;99.90;;;;;;5085017;28;19919;-76
2021/01/26 01:03:24;;;;;;;;;;;-2.20;99.90;;;;;;5073313;28;20453;-76
2021/01/26 01:05:49;;;;;;;;;;;-2.20;99.90;;;;;;5072925;28;19919;-76
2021/01/26 01:08:14;;;;;;;;;;;-2.20;99.90;;;;;;5079330;28;19913;-76
2021/01/26 01:10:40;;;;;;;;;;;-2.20;99.90;;;;;;5073812;28;20003;-76
2021/01/26 01:13:06;;;;;;;;;;;-2.20;99.90;;;;;;5083471;28;20357;-76
2021/01/26 01:15:32;;;;;;;;;;;-2.20;99.90;;;;;;5083325;28;19948;-76
2021/01/26 01:17:58;;;;;;;;;;;-2.10;99.90;;;;;;5080862;28;20392;-76
2021/01/26 01:20:24;;;;;;;;;;;-2.20;99.90;;;;;;5077987;28;19912;-76
2021/01/26 01:22:49;;;;;;;;;;;-2.20;99.90;;;;;;5087260;28;19908;-76
2021/01/26 01:25:15;;;;;;;;;;;-2.20;99.90;;;;;;5083671;28;19962;-76
2021/01/26 01:27:40;;;;;;;;;;;-2.20;99.90;;;;;;5085913;28;19920;-76
2021/01/26 01:30:07;;;;;;;;;;;-2.20;99.90;;;;;;5078859;28;19909;-76
2021/01/26 01:32:33;;;;;;;;;;;-2.20;99.90;;;;;;5091852;28;19920;-76
2021/01/26 01:34:58;;;;;;;;;;;-2.10;99.90;;;;;;5085820;28;19912;-76
2021/01/26 01:37:24;;;;;;;;;;;-2.20;99.90;;;;;;5077503;28;20057;-76
2021/01/26 01:39:49;;;;;;;;;;;-2.20;99.90;;;;;;5085606;28;20287;-76
2021/01/26 01:42:14;;;;;;;;;;;-2.10;99.90;;;;;;5086278;28;19915;-76
2021/01/26 01:44:40;;;;;;;;;;;-2.10;99.90;;;;;;5083137;28;19915;-76
2021/01/26 01:47:08;;;;;;;;;;;-2.10;99.90;;;;;;5079253;28;20353;-76
2021/01/26 01:49:41;;;;;;;;;;;-2.10;99.90;;;;;;5072374;28;19912;-76
2021/01/26 01:52:10;;;;;;;;;;;-2.10;99.90;;;;;;5091964;28;19931;-76
2021/01/26 01:54:37;;;;;;;;;;;-2.00;99.90;;;;;;5091892;28;20250;-76
2021/01/26 01:57:08;;;;;;;;;;;-2.00;99.90;;;;;;5085073;28;20355;-76
2021/01/26 01:59:41;;;;;;;;;;;-2.00;99.90;;;;;;5072072;28;19912;-76
2021/01/26 02:02:07;;;;;;;;;;;-2.00;99.90;;;;;;5078556;28;19908;-76
2021/01/26 02:04:33;;;;;;;;;;;-1.90;99.90;;;;;;5070766;28;20296;-76
2021/01/26 02:06:59;;;;;;;;;;;-1.90;99.90;;;;;;5070181;28;19916;-76
2021/01/26 02:09:26;;;;;;;;;;;-1.80;99.90;;;;;;5078131;28;19961;-76
2021/01/26 02:11:52;;;;;;;;;;;-1.80;99.90;;;;;;5081720;28;19913;-76
2021/01/26 02:14:18;;;;;;;;;;;-1.70;99.90;;;;;;5075801;28;19908;-76
2021/01/26 02:16:55;;;;;;;;;;;-1.70;99.90;;;;;;5084414;28;19957;-76
2021/01/26 02:19:40;;;;;;;;;;;-1.70;99.90;;;;;;5087973;28;20300;-76
2021/01/26 02:22:24;;;;;;;;;;;-1.60;99.90;;;;;;5075247;28;19908;-76
2021/01/26 02:25:05;;;;;;;;;;;-1.60;99.90;;;;;;5091099;28;19908;-76
2021/01/26 02:27:45;;;;;;;;;;;-1.60;99.90;;;;;;5085697;28;19955;-76
2021/01/26 02:30:36;;;;;;;;;;;-1.60;99.90;;;;;;5080928;28;19964;-77
2021/01/26 02:33:17;;;;;;;;;;;-1.60;99.90;;;;;;5086802;28;20337;-76
2021/01/26 02:35:56;;;;;;;;;;;-1.60;99.90;;;;;;5079251;28;20370;-76
2021/01/26 02:38:35;;;;;;;;;;;-1.60;99.90;;;;;;5090958;28;20366;-76
2021/01/26 02:41:06;;;;;;;;;;;-1.60;99.90;;;;;;5073295;28;19995;-76
2021/01/26 02:43:32;;;;;;;;;;;-1.60;99.90;;;;;;5089953;28;19954;-76
2021/01/26 02:46:00;;;;;;;;;;;-1.60;99.90;;;;;;5087091;28;19916;-76
2021/01/26 02:48:36;;;;;;;;;;;-1.50;99.90;;;;;;5098646;28;19912;-76
2021/01/26 02:51:05;;;;;;;;;;;-1.50;99.90;;;;;;5070912;28;19955;-76
2021/01/26 02:53:55;;;;;;;;;;;-1.50;99.90;;;;;;5076352;28;19908;-76
2021/01/26 02:56:25;;;;;;;;;;;-1.50;99.90;;;;;;5086665;28;19908;-76
2021/01/26 02:58:50;;;;;;;;;;;-1.40;99.90;;;;;;5087874;28;20113;-76
2021/01/26 03:01:17;;;;;;;;;;;-1.40;99.90;;;;;;5090538;28;19908;-76
2021/01/26 03:04:03;;;;;;;;;;;-1.30;99.90;;;;;;5088103;28;19909;-76
2021/01/26 03:06:29;;;;;;;;;;;-1.30;99.90;;;;;;5089457;28;19950;-76
2021/01/26 03:09:00;;;;;;;;;;;-1.30;99.90;;;;;;5083991;28;19912;-76
2021/01/26 03:11:35;;;;;;;;;;;-1.20;99.90;;;;;;5070314;28;19916;-76
2021/01/26 03:14:07;;;;;;;;;;;-1.20;99.90;;;;;;5078407;28;19974;-76
2021/01/26 03:16:34;;;;;;;;;;;-1.20;99.90;;;;;;5075752;28;19995;-76
2021/01/26 03:19:07;;;;;;;;;;;-1.20;99.90;;;;;;5085527;28;19911;-76
2021/01/26 03:21:34;;;;;;;;;;;-1.20;99.90;;;;;;5094801;28;20368;-76
2021/01/26 03:24:06;;;;;;;;;;;-1.20;99.90;;;;;;5087695;28;19978;-76
2021/01/26 03:26:33;;;;;;;;;;;-1.20;99.90;;;;;;5079452;28;19916;-76
2021/01/26 03:29:00;;;;;;;;;;;-1.20;99.90;;;;;;5092234;28;20003;-76
2021/01/26 03:31:30;;;;;;;;;;;-1.30;99.90;;;;;;5083242;28;19962;-77
2021/01/26 03:33:55;;;;;;;;;;;-1.30;99.90;;;;;;5094201;28;19908;-76
2021/01/26 03:36:21;;;;;;;;;;;-1.40;99.90;;;;;;5084222;28;19909;-76
2021/01/26 03:38:47;;;;;;;;;;;-1.40;99.90;;;;;;5076488;28;20318;-76
2021/01/26 03:41:13;;;;;;;;;;;-1.40;99.90;;;;;;5085814;28;19909;-76
2021/01/26 03:43:38;;;;;;;;;;;-1.40;99.90;;;;;;5079673;28;19908;-76
2021/01/26 03:46:39;;;;;;;;;;;-1.40;99.90;;;;;;5082540;28;20379;-76
2021/01/26 03:49:11;;;;;;;;;;;-1.40;99.90;;;;;;5031334;28;19914;-76
2021/01/26 03:51:55;;;;;;;;;;;-1.40;99.90;;;;;;5062566;28;19908;-76
2021/01/26 03:54:34;;;;;;;;;;;-1.50;99.90;;;;;;5081018;28;19908;-76
2021/01/26 03:57:11;;;;;;;;;;;-1.50;99.90;;;;;;5074073;28;19967;-76
2021/01/26 03:59:46;;;;;;;;;;;-1.50;99.90;;;;;;5091193;28;19998;-76
2021/01/26 04:02:23;;;;;;;;;;;-1.50;99.90;;;;;;5081220;28;20341;-76
2021/01/26 04:05:01;;;;;;;;;;;-1.50;99.90;;;;;;5087898;28;20098;-76
2021/01/26 04:07:33;;;;;;;;;;;-1.50;99.90;;;;;;5077896;28;19919;-76
2021/01/26 04:10:11;;;;;;;;;;;-1.50;99.90;;;;;;5076777;28;19920;-76
2021/01/26 04:12:37;;;;;;;;;;;-1.50;99.90;;;;;;5090969;28;20284;-76
2021/01/26 04:15:11;;;;;;;;;;;-1.50;99.90;;;;;;5090225;28;19915;-76
2021/01/26 04:17:39;;;;;;;;;;;-1.40;99.90;;;;;;5072415;28;19916;-76
2021/01/26 04:20:07;;;;;;;;;;;-1.40;99.90;;;;;;5085373;28;20019;-76
2021/01/26 04:22:33;;;;;;;;;;;-1.40;99.90;;;;;;5093189;28;19969;-76
2021/01/26 04:24:58;;;;;;;;;;;-1.40;99.90;;;;;;5093211;28;19955;-76
2021/01/26 04:27:24;;;;;;;;;;;-1.30;99.90;;;;;;5079779;28;19912;-76
2021/01/26 04:29:50;;;;;;;;;;;-1.20;99.90;;;;;;5075345;28;19909;-76
2021/01/26 04:32:17;;;;;;;;;;;-1.20;99.90;;;;;;5077556;28;19923;-76
2021/01/26 04:34:42;;;;;;;;;;;-1.20;99.90;;;;;;5088758;28;19921;-76
2021/01/26 04:37:08;;;;;;;;;;;-1.10;99.90;;;;;;5086522;28;19908;-78
2021/01/26 04:39:33;;;;;;;;;;;-1.10;99.90;;;;;;5073464;28;19912;-77
2021/01/26 04:42:05;;;;;;;;;;;-1.00;99.90;;;;;;5089796;28;20360;-76
2021/01/26 04:44:36;;;;;;;;;;;-1.00;99.90;;;;;;5086223;28;19908;-76
2021/01/26 04:47:04;;;;;;;;;;;-1.00;99.90;;;;;;5086308;28;19908;-76
2021/01/26 04:49:33;;;;;;;;;;;-1.00;99.90;;;;;;5074553;28;20329;-76
2021/01/26 04:52:23;;;;;;;;;;;-0.90;99.90;;;;;;5085146;28;19912;-76
2021/01/26 04:55:07;;;;;;;;;;;-0.90;99.90;;;;;;5092756;28;20359;-76
2021/01/26 04:57:52;;;;;;;;;;;-0.90;99.90;;;;;;5091055;28;19908;-76
2021/01/26 05:00:26;;;;;;;;;;;-0.90;99.90;;;;;;5090933;28;19908;-77
2021/01/26 05:03:05;;;;;;;;;;;-0.90;99.90;;;;;;5092394;28;19998;-77
2021/01/26 05:05:34;;;;;;;;;;;-0.90;99.90;;;;;;5092444;28;19908;-76
2021/01/26 05:08:04;;;;;;;;;;;-0.90;99.90;;;;;;5076887;28;19912;-77
2021/01/26 05:10:36;;;;;;;;;;;-0.90;99.90;;;;;;5080865;28;20391;-76
2021/01/26 05:13:17;;;;;;;;;;;-0.90;99.90;;;;;;5083208;28;19908;-76
2021/01/26 05:15:43;;;;;;;;;;;-0.90;99.90;;;;;;5090700;28;19999;-76
2021/01/26 05:18:13;;;;;;;;;;;-0.90;99.90;;;;;;5092139;28;19908;-77
2021/01/26 05:20:42;;;;;;;;;;;-0.80;99.90;;;;;;5085479;28;19940;-76
2021/01/26 05:23:15;;;;;;;;;;;-0.90;99.90;;;;;;5080315;28;20009;-76
2021/01/26 05:25:40;;;;;;;;;;;-0.90;99.90;;;;;;5090245;28;19908;-76
2021/01/26 05:28:06;;;;;;;;;;;-0.90;99.90;;;;;;5085329;28;19938;-77
2021/01/26 05:30:34;;;;;;;;;;;-0.90;99.90;;;;;;5094794;28;20359;-76
2021/01/26 05:33:05;;;;;;;;;;;-0.90;99.90;;;;;;5084036;28;20233;-76
2021/01/26 05:35:30;;;;;;;;;;;-0.80;99.90;;;;;;5084144;28;20266;-76
2021/01/26 05:37:56;;;;;;;;;;;-0.80;99.90;;;;;;5078889;28;19908;-76
2021/01/26 05:40:24;;;;;;;;;;;-0.80;99.90;;;;;;5070997;28;19908;-76
2021/01/26 05:42:53;;;;;;;;;;;-0.80;99.90;;;;;;5078032;28;19908;-76
2021/01/26 05:45:21;;;;;;;;;;;-0.70;99.90;;;;;;5079313;28;19987;-76
2021/01/26 05:47:46;;;;;;;;;;;-0.80;99.90;;;;;;5077045;28;19913;-76
2021/01/26 05:50:23;;;;;;;;;;;-0.80;99.90;;;;;;5071813;28;20202;-77
2021/01/26 05:52:49;;;;;;;;;;;-0.80;99.90;;;;;;5078839;28;19908;-76
2021/01/26 05:55:21;;;;;;;;;;;-0.80;99.90;;;;;;5078699;28;20435;-77
2021/01/26 05:57:48;;;;;;;;;;;-0.70;99.90;;;;;;5084871;28;19934;-76
2021/01/26 06:00:16;;;;;;;;;;;-0.70;99.90;;;;;;5090397;28;20391;-77
2021/01/26 06:02:42;;;;;;;;;;;-0.70;99.90;;;;;;5070321;28;19986;-77
2021/01/26 06:05:10;;;;;;;;;;;-0.70;99.90;;;;;;5077959;28;19916;-77
2021/01/26 06:07:35;;;;;;;;;;;-0.70;99.90;;;;;;5088844;28;19916;-76
2021/01/26 06:10:14;;;;;;;;;;;-0.70;99.90;;;;;;5072181;28;19915;-76
2021/01/26 06:12:50;;;;;;;;;;;-0.70;99.90;;;;;;5076879;28;19912;-77
2021/01/26 06:15:19;;;;;;;;;;;-0.70;99.90;;;;;;5086662;28;20390;-76
2021/01/26 06:17:44;;;;;;;;;;;-0.70;99.90;;;;;;5090609;28;20431;-77
2021/01/26 06:20:10;;;;;;;;;;;-0.60;99.90;;;;;;5073180;28;19993;-77
2021/01/26 06:22:36;;;;;;;;;;;-0.70;99.90;;;;;;5086822;28;19908;-77
2021/01/26 06:25:03;;;;;;;;;;;-0.60;99.90;;;;;;5074850;28;19979;-77
2021/01/26 06:27:42;;;;;;;;;;;-0.70;99.90;;;;;;5071156;28;19920;-76
2021/01/26 06:30:15;;;;;;;;;;;-0.70;99.90;;;;;;5076043;28;19908;-77
2021/01/26 06:32:59;;;;;;;;;;;-0.70;99.90;;;;;;5079213;28;19913;-77
2021/01/26 06:35:38;;;;;;;;;;;-0.70;99.90;;;;;;5078020;28;19916;-76
2021/01/26 06:38:14;;;;;;;;;;;-0.70;99.90;;;;;;5090671;28;19927;-76
2021/01/26 06:40:47;;;;;;;;;;;-0.70;99.90;;;;;;5074073;28;20278;-77
2021/01/26 06:43:22;;;;;;;;;;;-0.70;99.90;;;;;;5077623;28;20400;-77
2021/01/26 06:45:57;;;;;;;;;;;-0.70;99.90;;;;;;5072993;28;20003;-77
2021/01/26 06:48:42;;;;;;;;;;;-0.70;99.90;;;;;;5076302;28;20416;-77
2021/01/26 06:51:13;;;;;;;;;;;-0.70;99.90;;;;;;5080075;28;20288;-77
2021/01/26 06:53:50;;;;;;;;;;;-0.70;99.90;;;;;;5091599;28;19912;-77
2021/01/26 06:56:32;;;;;;;;;;;-0.60;99.90;;;;;;5079881;28;20008;-77
2021/01/26 06:59:07;;;;;;;;;;;-0.60;99.90;;;;;;5084167;28;19908;-77
2021/01/26 07:01:51;;;;;;;;;;;-0.60;99.90;;;;;;5084456;28;19908;-77
2021/01/26 07:04:20;;;;;;;;;;;-0.60;99.90;;;;;;5086103;28;20018;-77
2021/01/26 07:07:04;;;;;;;;;;;-0.60;99.90;;;;;;5097137;28;19965;-77
2021/01/26 07:10:08;;;;;;;;;;;-0.60;99.90;;;;;;5097282;28;19916;-77
2021/01/26 07:12:40;;;;;;;;;;;-0.60;99.90;;;;;;5032116;28;20004;-77
2021/01/26 07:15:18;;;;;;;;;;;-0.60;99.90;;;;;;5029589;28;19909;-77
2021/01/26 07:18:01;;;;;;;;;;;-0.60;99.90;;;;;;5065516;28;19919;-77
2021/01/26 07:20:32;;;;;;;;;;;-0.60;99.90;;;;;;5097355;28;19908;-77
2021/01/26 07:23:01;;;;;;;;;;;-0.60;99.90;;;;;;5096024;28;19912;-77
2021/01/26 07:25:26;;;;;;;;;;;-0.60;99.90;;;;;;5082228;28;19916;-77
2021/01/26 07:27:58;;;;;;;;;;;-0.60;99.90;;;;;;5085429;28;19913;-77
2021/01/26 07:30:28;;;;;;;;;;;-0.50;99.90;;;;;;5089075;28;19917;-77
2021/01/26 07:32:56;;;;;;;;;;;-0.50;99.90;;;;;;5097092;28;20287;-77
2021/01/26 07:35:31;;;;;;;;;;;-0.50;99.90;;;;;;5096555;28;19912;-77
2021/01/26 07:38:13;;;;;;;;;;;-0.50;99.90;;;;;;5090100;28;20390;-77
2021/01/26 07:41:09;;;;;;;;;;;-0.50;99.90;;;;;;5083712;28;20298;-77
2021/01/26 07:43:35;;;;;;;;;;;-0.50;99.90;;;;;;5080833;28;19947;-77
2021/01/26 07:46:04;;;;;;;;;;;-0.40;99.90;;;;;;5088974;28;19954;-77
2021/01/26 07:48:41;;;;;;;;;;;-0.40;99.90;;;;;;5094440;28;19912;-76
2021/01/26 07:51:11;;;;;;;;;;;-0.40;99.90;;;;;;5090004;28;20285;-77
2021/01/26 07:53:39;;;;;;;;;;;-0.40;99.90;;;;;;5082294;28;20274;-77
2021/01/26 07:56:10;;;;;;;;;;;-0.30;99.90;;;;;;5096189;28;20323;-76
2021/01/26 07:58:37;;;;;;;;;;;-0.30;99.90;;;;;;5092442;28;19954;-76
2021/01/26 08:01:03;;;;;;;;;;;-0.30;99.90;;;;;;5097477;28;20288;-76
2021/01/26 08:03:30;;;;;;;;;;;-0.30;99.90;;;;;;5100068;28;19915;-76
2021/01/26 08:05:57;;;;;;;;;;;-0.20;99.90;;;;;;5091047;28;20000;-76
2021/01/26 08:08:27;;;;;;;;;;;-0.20;99.90;;;;;;5088205;28;19916;-76
2021/01/26 08:11:11;;;;;;;;;;;-0.20;99.90;;;;;;5089141;28;19954;-76
2021/01/26 08:13:44;;;;;;;;;;;-0.20;99.90;;;;;;5090652;28;20372;-76
2021/01/26 08:16:13;;;;;;;;;;;-0.20;99.90;;;;;;5110937;28;20509;-76
2021/01/26 08:18:38;;;;;;;;;;;-0.20;99.90;;;;;;5079058;28;19954;-76
2021/01/26 08:21:26;;;;;;;;;;;-0.20;99.90;;;;;;5090319;28;19920;-76
2021/01/26 08:23:51;;;;;;;;;;;-0.20;99.90;;;;;;5087885;28;19996;-76
2021/01/26 08:26:18;;;;;;;;;;;-0.10;99.90;;;;;;5090502;28;19983;-76
2021/01/26 08:28:45;;;;;;;;;;;-0.10;99.90;;;;;;5091116;28;19916;-76
2021/01/26 08:31:26;;;;;;;;;;;-0.10;99.90;;;;;;5084220;28;19917;-76
2021/01/26 08:33:53;;;;;;;;;;;-0.10;99.90;;;;;;5082450;28;19939;-76
2021/01/26 08:36:27;;;;;;;;;;;-0.10;99.90;;;;;;5097287;28;19915;-76
2021/01/26 08:38:54;;;;;;;;;;;-0.20;99.90;;;;;;5081781;28;19996;-76
2021/01/26 08:41:42;;;;;;;;;;;-0.20;99.90;;;;;;5086598;28;19912;-76
2021/01/26 08:44:30;;;;;;;;;;;-0.20;99.90;;;;;;5082132;28;19939;-76
2021/01/26 08:46:56;;;;;;;;;;;-0.20;99.90;;;;;;5075605;28;19958;-76
2021/01/26 08:49:33;;;;;;;;;;;-0.10;99.90;;;;;;5095934;28;19919;-76
2021/01/26 08:52:17;;;;;;;;;;;-0.10;99.90;;;;;;5090576;28;19916;-77
2021/01/26 08:54:43;;;;;;;;;;;-0.10;99.90;;;;;;5073577;28;20018;-76
2021/01/26 08:57:27;;;;;;;;;;;-0.10;99.90;;;;;;5073989;28;19915;-76
2021/01/26 09:00:19;;;;;;;;;;;-0.10;99.90;;;;;;5082711;28;19912;-77
2021/01/26 09:02:47;;;;;;;;;;;0.00;99.90;;;;;;5072988;28;19915;-76
2021/01/26 09:05:32;;;;;;;;;;;0.00;99.90;;;;;;5083313;28;20005;-76
2021/01/26 09:07:58;;;;;;;;;;;0.00;99.90;;;;;;5080466;28;20011;-76
2021/01/26 09:10:25;;;;;;;;;;;0.10;99.90;;;;;;5089793;28;19985;-75
2021/01/26 09:12:58;;;;;;;;;;;0.10;99.90;;;;;;5086941;28;19915;-76
2021/01/26 09:15:23;;;;;;;;;;;0.10;99.90;;;;;;5095961;28;19915;-76
2021/01/26 09:17:49;;;;;;;;;;;0.10;99.90;;;;;;5091969;28;19908;-76
2021/01/26 09:20:16;;;;;;;;;;;0.20;99.90;;;;;;5090239;28;19908;-75
2021/01/26 09:22:41;;;;;;;;;;;0.20;99.90;;;;;;5088856;28;19908;-76
2021/01/26 09:25:18;;;;;;;;;;;0.30;99.90;;;;;;5099416;28;19957;-76
2021/01/26 09:27:54;;;;;;;;;;;0.40;99.90;;;;;;5089858;28;19955;-76
2021/01/26 09:30:21;;;;;;;;;;;0.40;99.90;;;;;;5096791;28;20017;-76
2021/01/26 09:33:01;;;;;;;;;;;0.50;99.90;;;;;;5084155;28;20280;-75
2021/01/26 09:35:32;;;;;;;;;;;0.50;99.90;;;;;;5087522;28;19908;-76
2021/01/26 09:38:03;;;;;;;;;;;0.60;99.90;;;;;;5083315;28;19954;-76
2021/01/26 09:40:28;;;;;;;;;;;0.60;99.90;;;;;;5071919;28;19931;-76
2021/01/26 09:43:11;;;;;;;;;;;0.60;99.90;;;;;;5080052;28;20366;-76
2021/01/26 09:45:37;;;;;;;;;;;0.70;99.90;;;;;;5085966;28;19915;-76
2021/01/26 09:48:03;;;;;;;;;;;0.80;99.90;;;;;;5085521;28;20300;-76
2021/01/26 09:50:29;;;;;;;;;;;0.90;99.90;;;;;;5080276;28;19908;-75
2021/01/26 09:52:56;;;;;;;;;;;1.00;99.90;;;;;;5083234;28;20285;-76
2021/01/26 09:55:21;;;;;;;;;;;1.00;99.90;;;;;;5090995;28;19908;-76
2021/01/26 09:57:47;;;;;;;;;;;1.20;99.90;;;;;;5075679;28;20418;-75
2021/01/26 10:00:14;;;;;;;;;;;1.30;99.90;;;;;;5077159;28;19912;-75
2021/01/26 10:02:41;;;;;;;;;;;1.40;99.90;;;;;;5073323;28;19977;-76
2021/01/26 10:05:10;;;;;;;;;;;1.40;99.90;;;;;;5077424;28;20425;-76
2021/01/26 10:07:35;;;;;;;;;;;1.40;99.90;;;;;;5087146;28;19912;-76
2021/01/26 10:10:21;;;;;;;;;;;1.30;99.90;;;;;;5080959;28;20053;-76
2021/01/26 10:12:47;;;;;;;;;;;1.30;99.90;;;;;;5085096;28;19912;-76
2021/01/26 10:15:26;;;;;;;;;;;1.40;99.90;;;;;;5083704;28;20254;-76
2021/01/26 10:18:02;;;;;;;;;;;1.50;99.90;;;;;;5091150;28;19915;-76
2021/01/26 10:20:53;;;;;;;;;;;1.60;99.90;;;;;;5090662;28;19953;-77
2021/01/26 10:23:28;;;;;;;;;;;1.70;99.90;;;;;;5064678;28;19912;-76
2021/01/26 10:26:05;;;;;;;;;;;1.80;99.90;;;;;;5071542;28;20400;-77
2021/01/26 10:28:30;;;;;;;;;;;1.90;99.90;;;;;;5090849;28;20250;-77
2021/01/26 10:30:56;;;;;;;;;;;2.00;99.90;;;;;;5090914;28;19916;-77
2021/01/26 10:33:38;;;;;;;;;;;2.10;99.90;;;;;;5091038;28;19971;-77
2021/01/26 10:36:18;;;;;;;;;;;2.10;99.90;;;;;;5090882;28;19908;-76
2021/01/26 10:38:44;;;;;;;;;;;2.00;99.90;;;;;;5081524;28;19912;-76
2021/01/26 10:41:11;;;;;;;;;;;1.90;99.90;;;;;;5087219;28;19912;-77
2021/01/26 10:43:38;;;;;;;;;;;1.90;99.90;;;;;;5078626;28;19915;-76
2021/01/26 10:46:03;;;;;;;;;;;1.90;99.90;;;;;;5085598;28;20395;-76
2021/01/26 10:48:33;;;;;;;;;;;2.10;99.90;;;;;;5071404;28;19913;-77
2021/01/26 10:51:21;;;;;;;;;;;2.20;99.90;;;;;;5071613;28;19912;-76
2021/01/26 10:53:47;;;;;;;;;;;2.30;99.90;;;;;;5064751;28;19916;-76
2021/01/26 10:56:13;;;;;;;;;;;2.40;99.90;;;;;;5071244;28;19955;-76
2021/01/26 10:58:40;;;;;;;;;;;2.50;99.90;;;;;;5083012;28;20360;-76
2021/01/26 11:01:05;;;;;;;;;;;2.50;99.90;;;;;;5091209;28;19909;-76
2021/01/26 11:03:31;;;;;;;;;;;2.40;99.90;;;;;;5081240;28;19915;-76
2021/01/26 11:05:56;;;;;;;;;;;2.40;99.90;;;;;;5076799;28;20006;-77
2021/01/26 11:08:22;;;;;;;;;;;2.40;99.90;;;;;;5083669;28;19913;-77
2021/01/26 11:10:48;;;;;;;;;;;2.30;99.90;;;;;;5070296;28;20280;-76
2021/01/26 11:13:14;;;;;;;;;;;2.30;99.90;;;;;;5081298;28;20019;-76
2021/01/26 11:15:39;;;;;;;;;;;2.30;99.90;;;;;;5078866;28;19908;-76
2021/01/26 11:18:05;;;;;;;;;;;2.30;99.90;;;;;;5090793;28;20336;-76
2021/01/26 11:20:30;;;;;;;;;;;2.40;99.90;;;;;;5084200;28;19915;-76
2021/01/26 11:22:56;;;;;;;;;;;2.40;99.90;;;;;;5090842;28;20428;-76
2021/01/26 11:25:24;;;;;;;;;;;2.40;99.90;;;;;;5081483;28;20380;-76
2021/01/26 11:27:50;;;;;;;;;;;2.40;99.90;;;;;;5069546;28;20461;-76
2021/01/26 11:30:16;;;;;;;;;;;2.40;99.90;;;;;;5072160;28;19985;-77
2021/01/26 11:32:42;;;;;;;;;;;2.40;99.90;;;;;;5071573;28;20270;-77
2021/01/26 11:35:09;;;;;;;;;;;2.30;99.90;;;;;;5084314;28;19908;-76
2021/01/26 11:37:34;;;;;;;;;;;2.30;99.90;;;;;;5074562;28;20376;-77
2021/01/26 11:40:00;;;;;;;;;;;2.20;99.90;;;;;;5077471;28;19939;-76
2021/01/26 11:42:26;;;;;;;;;;;2.30;99.90;;;;;;5078643;28;20282;-77
2021/01/26 11:44:51;;;;;;;;;;;2.20;99.90;;;;;;5086361;28;19908;-76
2021/01/26 11:47:17;;;;;;;;;;;2.20;99.90;;;;;;5081809;28;19908;-76
2021/01/26 11:49:42;;;;;;;;;;;2.20;99.90;;;;;;5079848;28;19915;-76
2021/01/26 11:52:08;;;;;;;;;;;2.20;99.90;;;;;;5074621;28;19908;-76
2021/01/26 11:54:33;;;;;;;;;;;2.20;99.90;;;;;;5087776;28;19912;-77
2021/01/26 11:56:59;;;;;;;;;;;2.30;99.90;;;;;;5085844;28;19944;-76
2021/01/26 11:59:24;;;;;;;;;;;2.40;99.90;;;;;;5076722;28;19999;-76
2021/01/26 12:01:52;;;;;;;;;;;2.50;99.90;;;;;;5082417;28;19912;-76
2021/01/26 12:04:17;;;;;;;;;;;2.60;99.90;;;;;;5077024;28;19999;-77
2021/01/26 12:06:43;;;;;;;;;;;2.70;99.90;;;;;;5088952;28;19998;-77
2021/01/26 12:09:08;;;;;;;;;;;2.80;99.90;;;;;;5079060;28;19962;-77
2021/01/26 12:11:34;;;;;;;;;;;2.90;99.90;;;;;;5083064;28;20371;-77
2021/01/26 12:14:01;;;;;;;;;;;2.90;99.90;;;;;;5080636;28;20437;-77
2021/01/26 12:16:26;;;;;;;;;;;3.10;99.90;;;;;;5084579;28;19908;-77
2021/01/26 12:18:52;;;;;;;;;;;3.20;99.90;;;;;;5085855;28;19923;-77
2021/01/26 12:21:17;;;;;;;;;;;3.30;99.90;;;;;;5073753;28;20457;-76
2021/01/26 12:23:48;;;;;;;;;;;3.40;99.90;;;;;;5079995;28;19995;-77
2021/01/26 12:26:13;;;;;;;;;;;3.40;99.90;;;;;;5083051;28;19912;-77
2021/01/26 12:28:39;;;;;;;;;;;3.30;99.90;;;;;;5082645;28;20258;-77
2021/01/26 12:31:04;;;;;;;;;;;3.20;99.90;;;;;;5080267;28;19984;-76
2021/01/26 12:33:30;;;;;;;;;;;3.20;99.90;;;;;;5077655;28;19929;-76
2021/01/26 12:35:55;;;;;;;;;;;3.20;99.90;;;;;;5078319;28;19991;-76
2021/01/26 12:38:21;;;;;;;;;;;3.10;99.90;;;;;;5082792;28;19909;-76
2021/01/26 12:40:46;;;;;;;;;;;3.00;99.90;;;;;;5076517;28;20257;-76
2021/01/26 12:43:12;;;;;;;;;;;2.90;99.90;;;;;;5087635;28;19912;-76
2021/01/26 12:45:37;;;;;;;;;;;2.80;99.90;;;;;;5077141;28;19948;-76
2021/01/26 12:48:03;;;;;;;;;;;2.60;99.90;;;;;;5081818;28;19958;-76
2021/01/26 12:50:30;;;;;;;;;;;2.60;99.90;;;;;;5087111;28;19965;-76
2021/01/26 12:52:56;;;;;;;;;;;2.60;99.90;;;;;;5078247;28;19918;-76
2021/01/26 12:55:21;;;;;;;;;;;2.50;99.90;;;;;;5074884;28;20281;-76
2021/01/26 12:57:47;;;;;;;;;;;2.50;99.90;;;;;;5082931;28;20341;-76
2021/01/26 13:00:14;;;;;;;;;;;2.50;99.90;;;;;;5078530;28;20269;-76
2021/01/26 13:02:40;;;;;;;;;;;2.50;99.90;;;;;;5077744;28;19943;-76
2021/01/26 13:05:06;;;;;;;;;;;2.50;99.90;;;;;;5078509;28;19912;-76
2021/01/26 13:07:32;;;;;;;;;;;2.50;99.90;;;;;;5081424;28;19987;-76
2021/01/26 13:09:57;;;;;;;;;;;2.60;99.90;;;;;;5085144;28;20039;-77
2021/01/26 13:12:23;;;;;;;;;;;2.70;99.90;;;;;;5071763;28;19915;-77
2021/01/26 13:14:48;;;;;;;;;;;2.80;99.90;;;;;;5086022;28;20319;-76
2021/01/26 13:17:14;;;;;;;;;;;2.80;99.90;;;;;;5077290;28;19916;-76
2021/01/26 13:19:39;;;;;;;;;;;2.80;99.90;;;;;;5078364;28;20268;-76
2021/01/26 13:22:05;;;;;;;;;;;2.90;99.90;;;;;;5076730;28;19960;-76
2021/01/26 13:24:30;;;;;;;;;;;2.90;99.90;;;;;;5088312;28;19916;-76
2021/01/26 13:26:56;;;;;;;;;;;3.00;99.90;;;;;;5082224;28;19912;-76
2021/01/26 13:29:22;;;;;;;;;;;3.00;99.90;;;;;;5080873;28;19916;-76
2021/01/26 13:31:48;;;;;;;;;;;3.10;99.90;;;;;;5073381;28;19923;-76
2021/01/26 13:34:13;;;;;;;;;;;3.20;99.90;;;;;;5075018;28;19924;-76
2021/01/26 13:36:39;;;;;;;;;;;3.20;99.90;;;;;;5083863;28;19915;-76
2021/01/26 13:39:05;;;;;;;;;;;3.30;99.90;;;;;;5072166;28;20258;-76
2021/01/26 13:41:30;;;;;;;;;;;3.30;99.90;;;;;;5072565;28;19908;-76
2021/01/26 13:43:55;;;;;;;;;;;3.30;99.90;;;;;;5074961;28;19991;-76
2021/01/26 13:46:21;;;;;;;;;;;3.30;99.90;;;;;;5081252;28;19990;-76
2021/01/26 13:48:46;;;;;;;;;;;3.30;99.90;;;;;;5073290;28;19919;-76
2021/01/26 13:51:12;;;;;;;;;;;3.30;99.90;;;;;;5075291;28;19912;-76
2021/01/26 13:53:37;;;;;;;;;;;3.30;99.90;;;;;;5075247;28;20266;-76
2021/01/26 13:56:03;;;;;;;;;;;3.30;99.90;;;;;;5079073;28;20313;-76
2021/01/26 13:58:28;;;;;;;;;;;3.30;99.90;;;;;;5075758;28;19908;-76
2021/01/26 14:00:54;;;;;;;;;;;3.30;99.90;;;;;;5081924;28;20384;-76
2021/01/26 14:03:20;;;;;;;;;;;3.30;99.90;;;;;;5078978;28;20048;-76
2021/01/26 14:05:45;;;;;;;;;;;3.20;99.90;;;;;;5075006;28;19912;-76
2021/01/26 14:08:11;;;;;;;;;;;3.20;99.90;;;;;;5071712;28;19963;-76
2021/01/26 14:10:37;;;;;;;;;;;3.00;99.90;;;;;;5086067;28;19909;-76
2021/01/26 14:13:03;;;;;;;;;;;2.90;99.90;;;;;;5084655;28;20304;-76
2021/01/26 14:15:29;;;;;;;;;;;2.90;99.90;;;;;;5078225;28;19932;-76
2021/01/26 14:17:55;;;;;;;;;;;2.90;99.90;;;;;;5081025;28;19997;-76
2021/01/26 14:20:21;;;;;;;;;;;2.90;99.90;;;;;;5078896;28;20026;-76
2021/01/26 14:22:46;;;;;;;;;;;3.00;99.90;;;;;;5077965;28;19912;-76
2021/01/26 14:25:14;;;;;;;;;;;3.00;99.90;;;;;;5079733;28;20273;-76
2021/01/26 14:27:39;;;;;;;;;;;3.00;99.90;;;;;;5068170;28;19920;-76
2021/01/26 14:30:06;;;;;;;;;;;2.90;99.90;;;;;;5074522;28;19912;-76
2021/01/26 14:32:32;;;;;;;;;;;2.80;99.90;;;;;;5077273;28;19919;-76
2021/01/26 14:34:57;;;;;;;;;;;2.70;99.90;;;;;;5068761;28;19912;-76